• Join FlightAware (Why Join?)
  • Login
  • US Flag 
02:59AM EDT


 

Airport Tracker/Info


-or-


 

Live Flight TrackerFlight Track Log ✈ LAN439 ✈ 17-Sep-2013 ✈ SCEL / SCL - SABE / AEP

Flight Track Log - Related Links

Times and Time Zones

All times are in EDT time to prevent confusion due to time zone crossing. See the LAN439 flight status page for this flight to view local times or setup timezone preferences in your user account.

Time Position Orientation Groundspeed Altitude Reporting Facility
EDT Latitude Longitude Course Direction KTS MPH feet Rate Location/Type
07:47AM -33.7210 -70.7550 140° Southeast 290 334 15,000  Level FlightAware
07:48AM -33.7540 -70.7240 142° Southeast 298 343 16,200 2,100 Climbing FlightAware
07:48AM -33.7870 -70.6920 141° Southeast 304 350 17,300 2,160 Climbing FlightAware
07:49AM -33.8340 -70.6470 142° Southeast 322 371 18,800 1,980 Climbing FlightAware
07:50AM -33.8770 -70.6070 142° Southeast 340 391 19,700 1,140 Climbing FlightAware
07:50AM -33.9200 -70.5660 142° Southeast 371 427 20,100 600 Climbing FlightAware
07:51AM -33.9690 -70.5200 142° Southeast 398 458 20,500 600 Climbing FlightAware
07:51AM -33.9950 -70.4760 125° Southeast 436 502 20,700 1,080 Climbing FlightAware
07:52AM -34.0310 -70.3490 109° East 463 533 21,800 900 Climbing FlightAware
07:53AM -34.0670 -70.2230 109° East 468 539 22,400 900 Climbing FlightAware
07:54AM -34.1000 -70.1030 108° East 478 550 23,300 660 Climbing FlightAware
07:54AM -34.1210 -70.0250 108° East 478 550 23,300  Level FlightAware
07:55AM -34.1420 -69.9470 108° East 478 550 23,300  Level FlightAware
07:55AM -34.1630 -69.8690 108° East 478 550 23,300  Level FlightAware
07:56AM -34.1840 -69.7920 108° East 478 550 23,300  Level FlightAware
07:57AM -34.2050 -69.7140 108° East 478 550 23,300 2,400 Level FlightAware
07:59AM -34.2211 -69.5038 95° East  Level Estimated
08:00AM -34.2297 -69.3901 95° East  Level Estimated
08:01AM -34.2382 -69.2764 95° East  Level Estimated
08:01AM -34.4220 -68.9900 95° East 484 557 34,100  Level FlightAware
08:01AM -34.4450 -68.9090 109° East 484 557 34,100 480 Level FlightAware
08:02AM -34.4760 -68.7990 109° East 484 557 34,800 480 Climbing FlightAware
08:02AM -34.4980 -68.7200 109° East 484 557 34,800  Level FlightAware
08:03AM -34.5210 -68.6420 110° East 484 557 34,800  Level FlightAware
08:04AM -34.5440 -68.5610 109° East 484 557 34,800  Level FlightAware
08:04AM -34.5660 -68.4820 109° East 484 557 34,800 -180 Level FlightAware
08:07AM -34.5760 -68.2282 93° East  Level Estimated
08:08AM -34.5803 -68.1137 93° East  Level Estimated
08:09AM -34.5846 -67.9992 93° East  Level Estimated
08:10AM -34.5887 -67.8846 93° East  Level Estimated
08:11AM -34.5927 -67.7701 92° East  Level Estimated
08:12AM -34.5966 -67.6555 92° East  Level Estimated
08:13AM -34.6005 -67.5410 92° East  Level Estimated
08:14AM -34.6042 -67.4264 92° East  Level Estimated
08:15AM -34.6077 -67.3118 92° East  Level Estimated
08:16AM -34.6112 -67.1972 92° East  Level Estimated
08:17AM -34.6146 -67.0826 92° East  Level Estimated
08:18AM -34.6179 -66.9680 92° East  Level Estimated
08:19AM -34.6211 -66.8533 92° East  Level Estimated
08:20AM -34.6241 -66.7387 92° East  Level Estimated
08:21AM -34.6271 -66.6240 92° East  Level Estimated
08:22AM -34.6299 -66.5094 92° East  Level Estimated
08:23AM -34.6326 -66.3947 92° East  Level Estimated
08:24AM -34.6353 -66.2801 92° East  Level Estimated
08:25AM -34.6378 -66.1654 92° East  Level Estimated
08:26AM -34.6402 -66.0507 91° East  Level Estimated
08:27AM -34.6425 -65.9360 91° East  Level Estimated
08:28AM -34.6447 -65.8213 91° East  Level Estimated
08:29AM -34.6468 -65.7066 91° East  Level Estimated
08:30AM -34.6488 -65.5919 91° East  Level Estimated
08:31AM -34.6507 -65.4772 91° East  Level Estimated
08:32AM -34.6524 -65.3625 91° East  Level Estimated
08:33AM -34.6541 -65.2478 91° East  Level Estimated
08:34AM -34.6556 -65.1331 91° East  Level Estimated
08:35AM -34.6571 -65.0183 91° East  Level Estimated
08:36AM -34.6584 -64.9036 91° East  Level Estimated
08:37AM -34.6597 -64.7889 91° East  Level Estimated
08:38AM -34.6608 -64.6741 91° East  Level Estimated
08:39AM -34.6618 -64.5594 91° East  Level Estimated
08:40AM -34.6627 -64.4446 91° East  Level Estimated
08:41AM -34.6635 -64.3299 91° East  Level Estimated
08:42AM -34.6642 -64.2151 90° East  Level Estimated
08:43AM -34.6648 -64.1004 90° East  Level Estimated
08:44AM -34.6653 -63.9856 90° East  Level Estimated
08:45AM -34.6656 -63.8709 90° East  Level Estimated
08:46AM -34.6659 -63.7561 90° East  Level Estimated
08:47AM -34.6661 -63.6414 90° East  Level Estimated
08:48AM -34.6661 -63.5266 90° East  Level Estimated
08:49AM -34.6660 -63.4119 90° East  Level Estimated
08:50AM -34.6659 -63.2971 90° East  Level Estimated
08:51AM -34.6656 -63.1824 90° East  Level Estimated
08:52AM -34.6652 -63.0676 90° East  Level Estimated
08:53AM -34.6647 -62.9529 90° East  Level Estimated
08:54AM -34.6641 -62.8381 90° East  Level Estimated
08:55AM -34.6634 -62.7234 90° East  Level Estimated
08:55AM -35.0150 -60.3750 90° East 411 473 28,400  Level FlightAware
08:55AM -35.0160 -60.2910 91° East 398 458 27,400 -1,560 Descending FlightAware
08:56AM -35.0180 -60.2170 92° East 386 444 26,600 -1,380 Descending FlightAware
08:56AM -35.0190 -60.1400 91° East 375 432 25,800 -1,440 Descending FlightAware
08:57AM -35.0200 -60.0700 91° East 365 420 25,000 -1,500 Descending FlightAware
08:58AM -35.0210 -59.9950 91° East 356 410 24,100 -1,380 Descending FlightAware
08:58AM -35.0220 -59.9340 91° East 348 400 23,500 -1,500 Descending FlightAware
08:59AM -35.0230 -59.8620 91° East 341 392 22,400 -2,700 Descending FlightAware
08:59AM -35.0240 -59.7870 91° East 366 421 20,200 -3,900 Descending FlightAware
09:00AM -35.0230 -59.7610 87° East 379 436 19,300 -4,200 Descending FlightAware
09:00AM -35.0190 -59.7450 73° East 384 442 18,800 -3,000 Descending FlightAware
09:00AM -35.0050 -59.7140 61° Northeast 383 441 18,100 -2,580 Descending FlightAware
09:01AM -34.9750 -59.6560 58° Northeast 383 441 16,700 -1,980 Descending FlightAware
09:01AM -34.9440 -59.5900 60° Northeast 369 425 15,900 -1,500 Descending FlightAware
09:02AM -34.9150 -59.5290 60° Northeast 355 409 15,000 -1,440 Descending FlightAware
09:02AM -34.8880 -59.4720 60° Northeast 342 394 14,300 -1,200 Descending FlightAware
09:03AM -34.8620 -59.4170 60° Northeast 327 376 13,700 -1,380 Descending FlightAware
09:03AM -34.8340 -59.3590 60° Northeast 324 373 12,700 -1,680 Descending FlightAware
09:04AM -34.8080 -59.3030 61° Northeast 325 374 11,700 -1,620 Descending FlightAware
09:05AM -34.7810 -59.2460 60° Northeast 321 369 10,800 -1,440 Descending FlightAware
09:05AM -34.7540 -59.1900 60° Northeast 310 357 10,000 -1,320 Descending FlightAware
09:06AM -34.7400 -59.1600 60° Northeast 306 352 9,600 -1,320 Descending FlightAware
09:06AM -34.7260 -59.1300 60° Northeast 304 350 9,100 -1,620 Descending FlightAware
09:06AM -34.7110 -59.1000 59° Northeast 302 348 8,500 -1,800 Descending FlightAware
09:07AM -34.6940 -59.0650 59° Northeast 303 349 7,800 -1,680 Descending FlightAware
09:07AM -34.6800 -59.0350 60° Northeast 300 345 7,300 -1,200 Descending FlightAware
09:07AM -34.6660 -59.0060 60° Northeast 292 336 7,000 -1,080 Descending FlightAware
09:08AM -34.6530 -58.9780 61° Northeast 286 329 6,600 -1,260 Descending FlightAware
09:08AM -34.6370 -58.9460 59° Northeast 285 328 6,100 -840 Descending FlightAware
09:08AM -34.6230 -58.9160 60° Northeast 289 333 6,000 -180 Descending FlightAware
09:09AM -34.6100 -58.8890 60° Northeast 290 334 6,000  Level FlightAware
09:09AM -34.5970 -58.8610 61° Northeast 286 329 6,000 -840 Level FlightAware
09:09AM -34.5820 -58.8300 60° Northeast 288 331 5,400 -1,500 Descending FlightAware
09:10AM -34.5670 -58.8000 59° Northeast 286 329 4,900 -1,200 Descending FlightAware
09:10AM -34.5510 -58.7710 56° Northeast 276 318 4,600 -720 Descending FlightAware
09:10AM -34.5380 -58.7470 57° Northeast 266 306 4,400 -480 Descending FlightAware
09:11AM -34.5340 -58.7400 55° Northeast 264 304 4,400 -960 Level FlightAware
09:11AM -34.5090 -58.6920 58° Northeast 252 290 3,700 -1,200 Descending FlightAware
09:12AM -34.4960 -58.6670 58° Northeast 257 296 3,200 -1,260 Descending FlightAware
09:12AM -34.4820 -58.6410 57° Northeast 254 292 2,800 -840 Descending FlightAware
09:12AM -34.4680 -58.6150 57° Northeast 243 280 2,600 -780 Descending FlightAware
09:12AM -34.4620 -58.6010 63° Northeast 234 269 2,400 -660 Descending FlightAware
09:13AM -34.4610 -58.5910 83° East 224 258 2,400  Level FlightAware
09:13AM -34.4720 -58.5650 117° Southeast 171 197 2,400  Level FlightAware
09:13AM -34.4820 -58.5520 133° Southeast 150 173 2,400 -300 Level FlightAware
09:14AM -34.4920 -58.5370 129° Southeast 142 163 2,200 -720 Descending FlightAware
09:14AM -34.5000 -58.5230 125° Southeast 142 163 1,900 -900 Descending FlightAware
09:14AM -34.5070 -58.5100 123° Southeast 146 168 1,600 -780 Descending FlightAware
09:15AM -34.5110 -58.5010 118° Southeast 139 160 1,500 -720 Descending FlightAware
09:15AM -34.5190 -58.4870 125° Southeast 143 165 1,200 -840 Descending FlightAware
09:15AM -34.5270 -58.4730 125° Southeast 138 159 900 -840 Descending FlightAware
09:16AM -34.5350 -58.4590 125° Southeast 138 159 600 -900 Descending FlightAware
09:16AM -34.5430 -58.4460 127° Southeast 142 163 300 -420 Descending FlightAware
09:17AM -34.5560 -58.4210 122° Southeast 142 163 200 -180 Descending FlightAware
09:19AM -34.5500 -58.4167 90° East  Level FlightAware Approximate
09:20AM -34.5592 -58.4156 90° East  Level Estimated
09:21AM -34.5592 -58.4156 90° East  Level Estimated
09:22AM -34.5592 -58.4156 90° East  Level Estimated
09:23AM -34.5592 -58.4156 90° East  Level Estimated
09:24AM -34.5592 -58.4156 90° East  Level Estimated
09:25AM -34.5592 -58.4156 90° East  Level Estimated
09:26AM -34.5592 -58.4156 90° East  Level Estimated
09:27AM -34.5592 -58.4156 90° East  Level Estimated
09:28AM -34.5592 -58.4156 90° East  Level Estimated
09:29AM -34.5592 -58.4156 90° East  Level Estimated
09:30AM -34.5592 -58.4156 90° East  Level Estimated
09:31AM -34.5592 -58.4156 90° East  Level Estimated
09:32AM -34.5592 -58.4156 90° East  Level Estimated
09:33AM -34.5592 -58.4156 90° East  Level Estimated
09:34AM -34.5592 -58.4156 90° East  Level Estimated
09:35AM -34.5592 -58.4156 90° East  Level Estimated
09:36AM -34.5592 -58.4156 90° East  Level Estimated
09:37AM -34.5592 -58.4156 90° East  Level Estimated
09:38AM -34.5592 -58.4156 90° East  Level Estimated
09:39AM -34.5592 -58.4156 90° East  Level Estimated
09:40AM -34.5592 -58.4156 90° East  Level Estimated
09:41AM -34.5592 -58.4156 90° East  Level Estimated